sensor_id;sensor_type;location;lat;lon;timestamp;pressure;altitude;pressure_sealevel;temperature;humidity
60437;BME280;46289;51.992;4.498;2023-05-12T00:00:09;101965.09;;;12.46;94.72
60437;BME280;46289;51.992;4.498;2023-05-12T00:02:16;101960.69;;;12.45;94.60
60437;BME280;46289;51.992;4.498;2023-05-12T00:04:18;101963.41;;;12.43;94.73
60437;BME280;46289;51.992;4.498;2023-05-12T00:06:23;101962.47;;;12.44;94.34
60437;BME280;46289;51.992;4.498;2023-05-12T00:08:31;101959.19;;;12.38;94.45
60437;BME280;46289;51.992;4.498;2023-05-12T00:10:37;101954.06;;;12.32;94.73
60437;BME280;46289;51.992;4.498;2023-05-12T00:12:44;101958.53;;;12.29;94.42
60437;BME280;46289;51.992;4.498;2023-05-12T00:14:49;101955.97;;;12.26;94.58
60437;BME280;46289;51.992;4.498;2023-05-12T00:16:55;101957.88;;;12.21;94.60
60437;BME280;46289;51.992;4.498;2023-05-12T00:19:00;101963.88;;;12.26;94.32
60437;BME280;46289;51.992;4.498;2023-05-12T00:21:05;101952.72;;;12.18;94.52
60437;BME280;46289;51.992;4.498;2023-05-12T00:23:11;101959.78;;;12.16;94.32
60437;BME280;46289;51.992;4.498;2023-05-12T00:25:18;101947.56;;;12.14;94.18
60437;BME280;46289;51.992;4.498;2023-05-12T00:27:23;101948.63;;;12.08;93.69
60437;BME280;46289;51.992;4.498;2023-05-12T00:29:34;101954.09;;;12.00;94.31
60437;BME280;46289;51.992;4.498;2023-05-12T00:31:39;101948.09;;;11.95;94.47
60437;BME280;46289;51.992;4.498;2023-05-12T00:33:44;101946.41;;;11.93;93.99
60437;BME280;46289;51.992;4.498;2023-05-12T00:35:49;101953.34;;;11.97;94.39
60437;BME280;46289;51.992;4.498;2023-05-12T00:37:54;101949.22;;;11.86;94.40
60437;BME280;46289;51.992;4.498;2023-05-12T00:39:59;101951.00;;;11.84;94.35
60437;BME280;46289;51.992;4.498;2023-05-12T00:42:05;101951.22;;;11.77;94.31
60437;BME280;46289;51.992;4.498;2023-05-12T00:44:10;101954.97;;;11.68;94.61
60437;BME280;46289;51.992;4.498;2023-05-12T00:46:18;101952.53;;;11.62;95.05
60437;BME280;46289;51.992;4.498;2023-05-12T00:48:23;101948.97;;;11.63;94.61
60437;BME280;46289;51.992;4.498;2023-05-12T00:50:30;101943.13;;;11.52;94.89
60437;BME280;46289;51.992;4.498;2023-05-12T00:52:35;101947.50;;;11.53;94.54
60437;BME280;46289;51.992;4.498;2023-05-12T00:54:41;101944.13;;;11.48;95.11
60437;BME280;46289;51.992;4.498;2023-05-12T00:56:46;101943.22;;;11.49;94.46
60437;BME280;46289;51.992;4.498;2023-05-12T00:58:51;101950.19;;;11.51;94.92
60437;BME280;46289;51.992;4.498;2023-05-12T01:00:57;101943.38;;;11.42;94.90
60437;BME280;46289;51.992;4.498;2023-05-12T01:03:05;101951.34;;;11.39;95.41
60437;BME280;46289;51.992;4.498;2023-05-12T01:05:10;101949.53;;;11.41;95.04
60437;BME280;46289;51.992;4.498;2023-05-12T01:07:17;101948.06;;;11.31;94.94
60437;BME280;46289;51.992;4.498;2023-05-12T01:09:23;101944.69;;;11.26;95.63
60437;BME280;46289;51.992;4.498;2023-05-12T01:11:30;101942.75;;;11.33;95.76
60437;BME280;46289;51.992;4.498;2023-05-12T01:13:35;101945.53;;;11.27;95.81
60437;BME280;46289;51.992;4.498;2023-05-12T01:15:45;101947.16;;;11.32;95.62
60437;BME280;46289;51.992;4.498;2023-05-12T01:17:57;101941.22;;;11.24;95.71
60437;BME280;46289;51.992;4.498;2023-05-12T01:20:09;101937.97;;;11.14;95.93
60437;BME280;46289;51.992;4.498;2023-05-12T01:22:16;101939.50;;;11.23;96.00
60437;BME280;46289;51.992;4.498;2023-05-12T01:24:28;101940.34;;;11.24;95.71
60437;BME280;46289;51.992;4.498;2023-05-12T01:26:37;101939.53;;;11.21;95.59
60437;BME280;46289;51.992;4.498;2023-05-12T01:28:43;101936.13;;;11.18;95.88
60437;BME280;46289;51.992;4.498;2023-05-12T01:30:49;101944.94;;;11.15;96.08
60437;BME280;46289;51.992;4.498;2023-05-12T01:32:57;101943.25;;;11.14;95.92
60437;BME280;46289;51.992;4.498;2023-05-12T01:35:03;101944.88;;;11.18;95.56
60437;BME280;46289;51.992;4.498;2023-05-12T01:37:08;101938.84;;;11.13;95.81
60437;BME280;46289;51.992;4.498;2023-05-12T01:39:13;101941.38;;;11.18;94.61
60437;BME280;46289;51.992;4.498;2023-05-12T01:41:18;101932.94;;;11.05;94.57
60437;BME280;46289;51.992;4.498;2023-05-12T01:43:26;101932.06;;;11.05;94.92
60437;BME280;46289;51.992;4.498;2023-05-12T01:45:31;101932.97;;;11.04;94.64
60437;BME280;46289;51.992;4.498;2023-05-12T01:47:37;101940.03;;;11.02;95.08
60437;BME280;46289;51.992;4.498;2023-05-12T01:49:42;101932.06;;;11.05;94.56
60437;BME280;46289;51.992;4.498;2023-05-12T01:51:47;101937.41;;;11.02;94.40
60437;BME280;46289;51.992;4.498;2023-05-12T01:53:52;101935.56;;;11.05;94.78
60437;BME280;46289;51.992;4.498;2023-05-12T01:55:58;101942.69;;;11.00;94.05
60437;BME280;46289;51.992;4.498;2023-05-12T01:58:03;101941.84;;;10.99;94.32
60437;BME280;46289;51.992;4.498;2023-05-12T02:00:11;101939.97;;;11.05;94.59
60437;BME280;46289;51.992;4.498;2023-05-12T02:02:16;101938.38;;;10.97;95.41
60437;BME280;46289;51.992;4.498;2023-05-12T02:04:21;101940.22;;;10.95;94.43
60437;BME280;46289;51.992;4.498;2023-05-12T02:06:31;101942.56;;;11.06;95.13
60437;BME280;46289;51.992;4.498;2023-05-12T02:08:38;101939.25;;;10.98;95.44
60437;BME280;46289;51.992;4.498;2023-05-12T02:10:43;101938.47;;;10.94;95.50
60437;BME280;46289;51.992;4.498;2023-05-12T02:12:48;101940.22;;;10.94;95.57
60437;BME280;46289;51.992;4.498;2023-05-12T02:14:53;101936.75;;;10.93;96.10
60437;BME280;46289;51.992;4.498;2023-05-12T02:17:01;101940.25;;;10.92;95.84
60437;BME280;46289;51.992;4.498;2023-05-12T02:19:06;101936.75;;;10.93;96.40
60437;BME280;46289;51.992;4.498;2023-05-12T02:21:11;101935.00;;;10.92;96.29
60437;BME280;46289;51.992;4.498;2023-05-12T02:23:16;101933.25;;;10.93;96.40
60437;BME280;46289;51.992;4.498;2023-05-12T02:25:21;101928.09;;;10.88;96.47
60437;BME280;46289;51.992;4.498;2023-05-12T02:27:28;101927.25;;;10.88;96.89
60437;BME280;46289;51.992;4.498;2023-05-12T02:29:33;101925.63;;;10.82;96.68
60437;BME280;46289;51.992;4.498;2023-05-12T02:31:38;101921.16;;;10.84;96.67
60437;BME280;46289;51.992;4.498;2023-05-12T02:33:46;101923.94;;;10.80;96.90
60437;BME280;46289;51.992;4.498;2023-05-12T02:35:52;101925.63;;;10.82;96.97
60437;BME280;46289;51.992;4.498;2023-05-12T02:37:58;101922.19;;;10.79;97.48
60437;BME280;46289;51.992;4.498;2023-05-12T02:40:04;101917.78;;;10.79;97.26
60437;BME280;46289;51.992;4.498;2023-05-12T02:42:09;101916.75;;;10.85;97.18
60437;BME280;46289;51.992;4.498;2023-05-12T02:44:14;101915.84;;;10.87;97.16
60437;BME280;46289;51.992;4.498;2023-05-12T02:46:23;101923.00;;;10.82;97.42
60437;BME280;46289;51.992;4.498;2023-05-12T02:48:28;101916.16;;;10.75;97.90
60437;BME280;46289;51.992;4.498;2023-05-12T02:50:36;101908.16;;;10.80;97.09
60437;BME280;46289;51.992;4.498;2023-05-12T02:52:41;101914.28;;;10.80;97.74
60437;BME280;46289;51.992;4.498;2023-05-12T02:54:46;101909.00;;;10.80;97.57
60437;BME280;46289;51.992;4.498;2023-05-12T02:56:51;101906.50;;;10.75;97.43
60437;BME280;46289;51.992;4.498;2023-05-12T02:58:58;101905.56;;;10.76;97.31
60437;BME280;46289;51.992;4.498;2023-05-12T03:01:04;101898.44;;;10.82;97.42
60437;BME280;46289;51.992;4.498;2023-05-12T03:03:12;101910.06;;;10.71;97.67
60437;BME280;46289;51.992;4.498;2023-05-12T03:05:20;101902.09;;;10.76;97.54
60437;BME280;46289;51.992;4.498;2023-05-12T03:07:30;101902.31;;;10.67;97.43
60437;BME280;46289;51.992;4.498;2023-05-12T03:09:35;101896.91;;;10.73;97.38
60437;BME280;46289;51.992;4.498;2023-05-12T03:11:40;101896.00;;;10.74;97.76
60437;BME280;46289;51.992;4.498;2023-05-12T03:13:48;101895.88;;;10.79;97.72
60437;BME280;46289;51.992;4.498;2023-05-12T03:15:54;101890.78;;;10.72;97.47
60437;BME280;46289;51.992;4.498;2023-05-12T03:18:02;101888.19;;;10.71;97.72
60437;BME280;46289;51.992;4.498;2023-05-12T03:20:08;101890.91;;;10.66;98.40
60437;BME280;46289;51.992;4.498;2023-05-12T03:22:13;101885.66;;;10.66;98.36
60437;BME280;46289;51.992;4.498;2023-05-12T03:24:21;101885.63;;;10.68;98.71
60437;BME280;46289;51.992;4.498;2023-05-12T03:26:27;101884.69;;;10.72;98.37
60437;BME280;46289;51.992;4.498;2023-05-12T03:28:33;101885.53;;;10.72;98.76
60437;BME280;46289;51.992;4.498;2023-05-12T03:30:38;101885.63;;;10.69;98.90
60437;BME280;46289;51.992;4.498;2023-05-12T03:32:43;101876.72;;;10.73;99.32
60437;BME280;46289;51.992;4.498;2023-05-12T03:34:48;101876.66;;;10.76;99.41
60437;BME280;46289;51.992;4.498;2023-05-12T03:36:53;101871.63;;;10.67;99.92
60437;BME280;46289;51.992;4.498;2023-05-12T03:38:59;101869.88;;;10.68;100.00
60437;BME280;46289;51.992;4.498;2023-05-12T03:41:06;101865.47;;;10.68;100.00
60437;BME280;46289;51.992;4.498;2023-05-12T03:43:11;101866.31;;;10.70;100.00
60437;BME280;46289;51.992;4.498;2023-05-12T03:45:20;101861.03;;;10.72;100.00
60437;BME280;46289;51.992;4.498;2023-05-12T03:47:28;101868.75;;;10.78;100.00
60437;BME280;46289;51.992;4.498;2023-05-12T03:49:33;101865.28;;;10.76;100.00
60437;BME280;46289;51.992;4.498;2023-05-12T03:51:41;101867.22;;;10.69;100.00
60437;BME280;46289;51.992;4.498;2023-05-12T03:53:49;101864.53;;;10.71;100.00
60437;BME280;46289;51.992;4.498;2023-05-12T03:55:54;101860.84;;;10.78;100.00
60437;BME280;46289;51.992;4.498;2023-05-12T03:58:02;101864.19;;;10.85;100.00
60437;BME280;46289;51.992;4.498;2023-05-12T04:00:08;101859.94;;;10.79;100.00
60437;BME280;46289;51.992;4.498;2023-05-12T04:02:13;101860.03;;;10.76;100.00
60437;BME280;46289;51.992;4.498;2023-05-12T04:04:18;101861.03;;;10.72;100.00
60437;BME280;46289;51.992;4.498;2023-05-12T04:06:23;101862.75;;;10.71;100.00
60437;BME280;46289;51.992;4.498;2023-05-12T04:08:29;101855.69;;;10.73;100.00
60437;BME280;46289;51.992;4.498;2023-05-12T04:10:37;101861.72;;;10.79;100.00
60437;BME280;46289;51.992;4.498;2023-05-12T04:12:43;101863.59;;;10.73;100.00
60437;BME280;46289;51.992;4.498;2023-05-12T04:14:51;101859.91;;;10.81;100.00
60437;BME280;46289;51.992;4.498;2023-05-12T04:16:57;101864.25;;;10.82;100.00
60437;BME280;46289;51.992;4.498;2023-05-12T04:19:02;101864.41;;;10.77;100.00
60437;BME280;46289;51.992;4.498;2023-05-12T04:21:07;101858.38;;;10.72;100.00
60437;BME280;46289;51.992;4.498;2023-05-12T04:23:12;101859.19;;;10.74;100.00
60437;BME280;46289;51.992;4.498;2023-05-12T04:25:18;101859.19;;;10.74;100.00
60437;BME280;46289;51.992;4.498;2023-05-12T04:27:23;101865.34;;;10.73;100.00
60437;BME280;46289;51.992;4.498;2023-05-12T04:29:28;101861.91;;;10.71;100.00
60437;BME280;46289;51.992;4.498;2023-05-12T04:31:36;101867.25;;;10.68;100.00
60437;BME280;46289;51.992;4.498;2023-05-12T04:33:42;101865.28;;;10.76;100.00
60437;BME280;46289;51.992;4.498;2023-05-12T04:35:54;101863.69;;;10.69;100.00
60437;BME280;46289;51.992;4.498;2023-05-12T04:37:59;101862.81;;;10.70;100.00
60437;BME280;46289;51.992;4.498;2023-05-12T04:40:07;101862.84;;;10.68;100.00
60437;BME280;46289;51.992;4.498;2023-05-12T04:42:12;101860.06;;;10.74;100.00
60437;BME280;46289;51.992;4.498;2023-05-12T04:44:18;101865.00;;;10.87;100.00
60437;BME280;46289;51.992;4.498;2023-05-12T04:46:23;101865.34;;;10.73;100.00
60437;BME280;46289;51.992;4.498;2023-05-12T04:48:30;101865.19;;;10.81;100.00
60437;BME280;46289;51.992;4.498;2023-05-12T04:50:36;101864.34;;;10.79;100.00
60437;BME280;46289;51.992;4.498;2023-05-12T04:52:41;101870.53;;;10.76;100.00
60437;BME280;46289;51.992;4.498;2023-05-12T04:54:46;101868.75;;;10.78;100.00
60437;BME280;46289;51.992;4.498;2023-05-12T04:56:52;101872.22;;;10.80;100.00
60437;BME280;46289;51.992;4.498;2023-05-12T04:58:57;101874.00;;;10.78;100.00
60437;BME280;46289;51.992;4.498;2023-05-12T05:01:03;101872.88;;;10.88;100.00
60437;BME280;46289;51.992;4.498;2023-05-12T05:03:08;101875.41;;;10.91;100.00
60437;BME280;46289;51.992;4.498;2023-05-12T05:05:17;101878.78;;;10.98;100.00
60437;BME280;46289;51.992;4.498;2023-05-12T05:07:23;101865.44;;;11.04;100.00
60437;BME280;46289;51.992;4.498;2023-05-12T05:09:29;101868.28;;;10.96;100.00
60437;BME280;46289;51.992;4.498;2023-05-12T05:11:37;101871.69;;;11.00;100.00
60437;BME280;46289;51.992;4.498;2023-05-12T05:13:42;101875.22;;;10.99;100.00
60437;BME280;46289;51.992;4.498;2023-05-12T05:15:49;101882.13;;;11.03;100.00
60437;BME280;46289;51.992;4.498;2023-05-12T05:17:55;101880.56;;;10.96;100.00
60437;BME280;46289;51.992;4.498;2023-05-12T05:20:03;101881.16;;;11.07;100.00
60437;BME280;46289;51.992;4.498;2023-05-12T05:22:16;101886.59;;;10.99;100.00
60437;BME280;46289;51.992;4.498;2023-05-12T05:24:21;101887.53;;;10.98;100.00
60437;BME280;46289;51.992;4.498;2023-05-12T05:26:26;101893.44;;;11.07;100.00
60437;BME280;46289;51.992;4.498;2023-05-12T05:28:31;101888.00;;;11.13;100.00
60437;BME280;46289;51.992;4.498;2023-05-12T05:30:36;101901.16;;;11.13;100.00
60437;BME280;46289;51.992;4.498;2023-05-12T05:32:41;101890.50;;;11.19;100.00
60437;BME280;46289;51.992;4.498;2023-05-12T05:34:46;101899.28;;;11.18;100.00
60437;BME280;46289;51.992;4.498;2023-05-12T05:36:51;101894.69;;;11.26;100.00
60437;BME280;46289;51.992;4.498;2023-05-12T05:38:59;101891.16;;;11.27;100.00
60437;BME280;46289;51.992;4.498;2023-05-12T05:41:04;101895.50;;;11.28;100.00
60437;BME280;46289;51.992;4.498;2023-05-12T05:43:10;101889.19;;;11.35;100.00
60437;BME280;46289;51.992;4.498;2023-05-12T05:45:15;101891.97;;;11.29;100.00
60437;BME280;46289;51.992;4.498;2023-05-12T05:47:20;101900.59;;;11.34;100.00
60437;BME280;46289;51.992;4.498;2023-05-12T05:49:26;101902.25;;;11.38;100.00
60437;BME280;46289;51.992;4.498;2023-05-12T05:51:31;101902.16;;;11.41;100.00
60437;BME280;46289;51.992;4.498;2023-05-12T05:53:37;101899.38;;;11.48;100.00
60437;BME280;46289;51.992;4.498;2023-05-12T05:55:44;101902.09;;;11.45;100.00
60437;BME280;46289;51.992;4.498;2023-05-12T05:57:49;101906.28;;;11.52;100.00
60437;BME280;46289;51.992;4.498;2023-05-12T05:59:54;101914.88;;;11.58;100.00
60437;BME280;46289;51.992;4.498;2023-05-12T06:02:00;101912.09;;;11.64;100.00
60437;BME280;46289;51.992;4.498;2023-05-12T06:04:05;101911.97;;;11.69;100.00
60437;BME280;46289;51.992;4.498;2023-05-12T06:06:10;101913.59;;;11.73;100.00
60437;BME280;46289;51.992;4.498;2023-05-12T06:08:15;101912.63;;;11.76;100.00
60437;BME280;46289;51.992;4.498;2023-05-12T06:10:21;101911.69;;;11.78;100.00
60437;BME280;46289;51.992;4.498;2023-05-12T06:12:32;101910.59;;;11.87;100.00
60437;BME280;46289;51.992;4.498;2023-05-12T06:14:37;101915.84;;;11.87;100.00
60437;BME280;46289;51.992;4.498;2023-05-12T06:16:42;101912.19;;;11.93;100.00
60437;BME280;46289;51.992;4.498;2023-05-12T06:18:47;101925.22;;;11.97;100.00
60437;BME280;46289;51.992;4.498;2023-05-12T06:20:52;101917.06;;;12.06;100.00
60437;BME280;46289;51.992;4.498;2023-05-12T06:22:57;101913.41;;;12.11;100.00
60437;BME280;46289;51.992;4.498;2023-05-12T06:25:02;101918.31;;;12.23;100.00
60437;BME280;46289;51.992;4.498;2023-05-12T06:27:08;101915.66;;;12.24;100.00
60437;BME280;46289;51.992;4.498;2023-05-12T06:29:15;101914.50;;;12.33;100.00
60437;BME280;46289;51.992;4.498;2023-05-12T06:31:22;101911.50;;;12.45;100.00
60437;BME280;46289;51.992;4.498;2023-05-12T06:33:27;101909.72;;;12.46;100.00
60437;BME280;46289;51.992;4.498;2023-05-12T06:35:32;101915.47;;;12.59;100.00
60437;BME280;46289;51.992;4.498;2023-05-12T06:37:37;101930.41;;;12.58;100.00
60437;BME280;46289;51.992;4.498;2023-05-12T06:39:42;101925.91;;;12.62;100.00
60437;BME280;46289;51.992;4.498;2023-05-12T06:41:47;101929.28;;;12.67;100.00
60437;BME280;46289;51.992;4.498;2023-05-12T06:43:51;101932.44;;;12.78;100.00
60437;BME280;46289;51.992;4.498;2023-05-12T06:45:59;101934.00;;;12.84;99.97
60437;BME280;46289;51.992;4.498;2023-05-12T06:48:05;101925.03;;;12.89;99.29
60437;BME280;46289;51.992;4.498;2023-05-12T06:50:10;101916.09;;;12.93;98.45
60437;BME280;46289;51.992;4.498;2023-05-12T06:52:16;101924.72;;;12.99;98.38
60437;BME280;46289;51.992;4.498;2023-05-12T06:54:22;101929.53;;;13.12;97.60
60437;BME280;46289;51.992;4.498;2023-05-12T06:56:30;101930.25;;;13.17;97.04
60437;BME280;46289;51.992;4.498;2023-05-12T06:58:35;101926.66;;;13.20;96.71
60437;BME280;46289;51.992;4.498;2023-05-12T07:00:40;101928.44;;;13.20;96.21
60437;BME280;46289;51.992;4.498;2023-05-12T07:02:47;101934.38;;;13.26;96.35
60437;BME280;46289;51.992;4.498;2023-05-12T07:04:52;101944.97;;;13.25;96.00
60437;BME280;46289;51.992;4.498;2023-05-12T07:06:57;101951.03;;;13.28;95.96
60437;BME280;46289;51.992;4.498;2023-05-12T07:09:02;101941.63;;;13.20;95.67
60437;BME280;46289;51.992;4.498;2023-05-12T07:11:07;101949.13;;;13.32;95.24
60437;BME280;46289;51.992;4.498;2023-05-12T07:13:12;101947.56;;;13.26;94.77
60437;BME280;46289;51.992;4.498;2023-05-12T07:15:17;101948.75;;;13.16;94.62
60437;BME280;46289;51.992;4.498;2023-05-12T07:17:22;101953.94;;;13.19;94.17
60437;BME280;46289;51.992;4.498;2023-05-12T07:19:32;101959.00;;;13.27;94.50
60437;BME280;46289;51.992;4.498;2023-05-12T07:21:37;101952.84;;;13.26;94.30
60437;BME280;46289;51.992;4.498;2023-05-12T07:23:42;101953.72;;;13.27;94.09
60437;BME280;46289;51.992;4.498;2023-05-12T07:25:47;101959.13;;;13.22;93.70
60437;BME280;46289;51.992;4.498;2023-05-12T07:27:52;101956.31;;;13.28;93.98
60437;BME280;46289;51.992;4.498;2023-05-12T07:29:57;101957.72;;;13.38;93.57
60437;BME280;46289;51.992;4.498;2023-05-12T07:32:03;101959.41;;;13.41;93.51
60437;BME280;46289;51.992;4.498;2023-05-12T07:34:08;101962.63;;;13.49;94.06
60437;BME280;46289;51.992;4.498;2023-05-12T07:36:18;101959.19;;;13.47;92.39
60437;BME280;46289;51.992;4.498;2023-05-12T07:38:23;101950.25;;;13.51;93.72
60437;BME280;46289;51.992;4.498;2023-05-12T07:40:32;101957.78;;;13.62;93.27
60437;BME280;46289;51.992;4.498;2023-05-12T07:42:37;101964.63;;;13.68;92.48
60437;BME280;46289;51.992;4.498;2023-05-12T07:44:42;101954.66;;;13.76;92.75
60437;BME280;46289;51.992;4.498;2023-05-12T07:46:47;101957.72;;;13.89;92.53
60437;BME280;46289;51.992;4.498;2023-05-12T07:48:52;101962.88;;;13.92;91.95
60437;BME280;46289;51.992;4.498;2023-05-12T07:50:58;101958.81;;;14.07;91.54
60437;BME280;46289;51.992;4.498;2023-05-12T07:53:06;101966.06;;;14.01;90.56
60437;BME280;46289;51.992;4.498;2023-05-12T07:55:11;101965.25;;;14.23;90.81
60437;BME280;46289;51.992;4.498;2023-05-12T07:57:16;101964.03;;;14.32;90.85
60437;BME280;46289;51.992;4.498;2023-05-12T07:59:21;101973.63;;;14.34;90.50
60437;BME280;46289;51.992;4.498;2023-05-12T08:01:26;101964.78;;;14.35;89.92
60437;BME280;46289;51.992;4.498;2023-05-12T08:03:31;101971.16;;;14.30;90.04
60437;BME280;46289;51.992;4.498;2023-05-12T08:05:37;101971.91;;;14.33;88.32
60437;BME280;46289;51.992;4.498;2023-05-12T08:07:42;101977.16;;;14.80;88.30
60437;BME280;46289;51.992;4.498;2023-05-12T08:09:50;101971.66;;;14.85;88.20
60437;BME280;46289;51.992;4.498;2023-05-12T08:11:56;101969.16;;;14.82;88.09
60437;BME280;46289;51.992;4.498;2023-05-12T08:14:00;101972.31;;;14.91;87.21
60437;BME280;46289;51.992;4.498;2023-05-12T08:16:05;101981.34;;;14.86;87.14
60437;BME280;46289;51.992;4.498;2023-05-12T08:18:10;101981.41;;;14.84;87.54
60437;BME280;46289;51.992;4.498;2023-05-12T08:20:16;101981.34;;;14.86;87.97
60437;BME280;46289;51.992;4.498;2023-05-12T08:22:21;101976.91;;;14.86;86.98
60437;BME280;46289;51.992;4.498;2023-05-12T08:24:26;101985.72;;;14.87;87.46
60437;BME280;46289;51.992;4.498;2023-05-12T08:26:34;101982.75;;;14.95;87.07
60437;BME280;46289;51.992;4.498;2023-05-12T08:28:38;101986.25;;;14.95;87.29
60437;BME280;46289;51.992;4.498;2023-05-12T08:30:43;101990.38;;;15.02;86.37
60437;BME280;46289;51.992;4.498;2023-05-12T08:32:48;101988.72;;;15.00;85.42
60437;BME280;46289;51.992;4.498;2023-05-12T08:34:53;101984.38;;;15.19;86.18
60437;BME280;46289;51.992;4.498;2023-05-12T08:36:58;101990.50;;;15.21;85.94
60437;BME280;46289;51.992;4.498;2023-05-12T08:39:04;101986.63;;;15.30;84.26
60437;BME280;46289;51.992;4.498;2023-05-12T08:41:12;101982.63;;;15.40;85.05
60437;BME280;46289;51.992;4.498;2023-05-12T08:43:23;101983.50;;;15.41;84.34
60437;BME280;46289;51.992;4.498;2023-05-12T08:45:31;101992.13;;;15.46;83.99
60437;BME280;46289;51.992;4.498;2023-05-12T08:47:36;101988.78;;;15.61;84.07
60437;BME280;46289;51.992;4.498;2023-05-12T08:49:43;101984.50;;;15.79;83.83
60437;BME280;46289;51.992;4.498;2023-05-12T08:51:52;101979.59;;;15.90;82.87
60437;BME280;46289;51.992;4.498;2023-05-12T08:53:59;101993.00;;;15.87;82.24
60437;BME280;46289;51.992;4.498;2023-05-12T08:56:07;101985.34;;;16.00;81.27
60437;BME280;46289;51.992;4.498;2023-05-12T08:58:15;101988.84;;;16.00;80.59
60437;BME280;46289;51.992;4.498;2023-05-12T09:00:37;101989.81;;;16.18;81.44
60437;BME280;46289;51.992;4.498;2023-05-12T09:02:43;101990.63;;;16.58;78.72
60437;BME280;46289;51.992;4.498;2023-05-12T09:04:55;101982.94;;;16.90;78.01
60437;BME280;46289;51.992;4.498;2023-05-12T09:07:00;101989.44;;;17.02;77.86
60437;BME280;46289;51.992;4.498;2023-05-12T09:09:05;101994.88;;;17.18;76.14
60437;BME280;46289;51.992;4.498;2023-05-12T09:11:10;101987.03;;;17.32;75.83
60437;BME280;46289;51.992;4.498;2023-05-12T09:13:19;101980.72;;;17.34;75.72
60437;BME280;46289;51.992;4.498;2023-05-12T09:15:33;102003.16;;;17.29;74.92
60437;BME280;46289;51.992;4.498;2023-05-12T09:17:41;101988.44;;;17.04;75.87
60437;BME280;46289;51.992;4.498;2023-05-12T09:19:47;101993.91;;;17.01;75.61
60437;BME280;46289;51.992;4.498;2023-05-12T09:21:51;101991.06;;;16.87;75.05
60437;BME280;46289;51.992;4.498;2023-05-12T09:23:58;101995.88;;;17.15;75.89
60437;BME280;46289;51.992;4.498;2023-05-12T09:26:07;101990.53;;;16.98;74.97
60437;BME280;46289;51.992;4.498;2023-05-12T09:28:13;101978.44;;;17.27;74.59
60437;BME280;46289;51.992;4.498;2023-05-12T09:30:28;101977.84;;;17.57;74.27
60437;BME280;46289;51.992;4.498;2023-05-12T09:32:35;101988.50;;;18.07;73.59
60437;BME280;46289;51.992;4.498;2023-05-12T09:34:42;101990.31;;;18.07;71.80
60437;BME280;46289;51.992;4.498;2023-05-12T09:36:54;101997.28;;;17.92;72.38
60437;BME280;46289;51.992;4.498;2023-05-12T09:39:01;101996.09;;;17.97;72.12
60437;BME280;46289;51.992;4.498;2023-05-12T09:41:08;101992.75;;;17.94;72.68
60437;BME280;46289;51.992;4.498;2023-05-12T09:43:12;101990.16;;;17.92;72.44
60437;BME280;46289;51.992;4.498;2023-05-12T09:45:20;101992.78;;;18.10;71.34
60437;BME280;46289;51.992;4.498;2023-05-12T09:47:27;101994.25;;;18.15;71.83
60437;BME280;46289;51.992;4.498;2023-05-12T09:49:32;101998.31;;;18.23;71.93
60437;BME280;46289;51.992;4.498;2023-05-12T09:51:41;102001.31;;;18.32;70.87
60437;BME280;46289;51.992;4.498;2023-05-12T09:53:46;101994.31;;;18.47;71.04
60437;BME280;46289;51.992;4.498;2023-05-12T09:55:51;101995.75;;;18.69;70.07
60437;BME280;46289;51.992;4.498;2023-05-12T09:57:57;101994.91;;;18.68;69.18
60437;BME280;46289;51.992;4.498;2023-05-12T10:00:06;101999.81;;;18.92;68.95
60437;BME280;46289;51.992;4.498;2023-05-12T10:02:33;101998.34;;;19.02;69.12
60437;BME280;46289;51.992;4.498;2023-05-12T10:04:43;101996.97;;;18.95;69.73
60437;BME280;46289;51.992;4.498;2023-05-12T10:06:54;102005.13;;;19.07;69.52
60437;BME280;46289;51.992;4.498;2023-05-12T10:09:04;101999.03;;;18.90;70.26
60437;BME280;46289;51.992;4.498;2023-05-12T10:11:10;101994.47;;;19.38;68.64
60437;BME280;46289;51.992;4.498;2023-05-12T10:13:15;102007.47;;;19.58;66.03
60437;BME280;46289;51.992;4.498;2023-05-12T10:15:21;101998.28;;;19.34;67.22
60437;BME280;46289;51.992;4.498;2023-05-12T10:17:27;101998.72;;;19.26;66.87
60437;BME280;46289;51.992;4.498;2023-05-12T10:19:34;101990.41;;;19.46;66.34
60437;BME280;46289;51.992;4.498;2023-05-12T10:21:42;101989.63;;;19.74;66.80
60437;BME280;46289;51.992;4.498;2023-05-12T10:23:51;101995.94;;;19.58;66.00
60437;BME280;46289;51.992;4.498;2023-05-12T10:25:58;101994.72;;;19.49;67.08
60437;BME280;46289;51.992;4.498;2023-05-12T10:28:03;101994.13;;;20.03;64.94
60437;BME280;46289;51.992;4.498;2023-05-12T10:30:09;102010.69;;;20.36;65.86
60437;BME280;46289;51.992;4.498;2023-05-12T10:32:15;102002.72;;;20.08;65.05
60437;BME280;46289;51.992;4.498;2023-05-12T10:34:20;102003.94;;;20.31;64.62
60437;BME280;46289;51.992;4.498;2023-05-12T10:36:25;102001.06;;;20.34;64.51
60437;BME280;46289;51.992;4.498;2023-05-12T10:38:34;102004.38;;;20.66;63.79
60437;BME280;46289;51.992;4.498;2023-05-12T10:40:51;102011.31;;;21.10;62.63
60437;BME280;46289;51.992;4.498;2023-05-12T10:42:58;102007.19;;;20.92;62.03
60437;BME280;46289;51.992;4.498;2023-05-12T10:45:14;102010.66;;;20.79;62.10
60437;BME280;46289;51.992;4.498;2023-05-12T10:47:23;102015.28;;;20.63;61.76
60437;BME280;46289;51.992;4.498;2023-05-12T10:49:31;102008.13;;;20.35;64.04
60437;BME280;46289;51.992;4.498;2023-05-12T10:51:48;102012.28;;;20.53;63.67
60437;BME280;46289;51.992;4.498;2023-05-12T10:53:59;102004.13;;;20.42;63.61
60437;BME280;46289;51.992;4.498;2023-05-12T10:56:08;102004.16;;;20.28;63.94
60437;BME280;46289;51.992;4.498;2023-05-12T10:58:13;101998.03;;;20.11;64.25